createdAt,value
2023-01-09T00:01:53.026Z,99860.06
2023-01-09T00:06:55.922Z,99861.22
2023-01-09T00:11:58.052Z,99860.41
2023-01-09T00:17:00.249Z,99861.78
2023-01-09T00:22:02.341Z,99870.25
2023-01-09T00:27:05.340Z,99862.88
2023-01-09T00:32:10.566Z,99839.59
2023-01-09T00:37:13.164Z,99851.38
2023-01-09T00:42:20.703Z,99854.69
2023-01-09T00:47:31.370Z,99841.03
2023-01-09T00:52:35.983Z,99838.81
2023-01-09T00:57:38.243Z,99828.13
2023-01-09T01:02:40.363Z,99832.25
2023-01-09T01:07:43.367Z,99819.94
2023-01-09T01:12:46.940Z,99830.63
2023-01-09T01:17:49.147Z,99827.31
2023-01-09T01:22:51.506Z,99813.38
2023-01-09T01:27:53.608Z,99813.38
2023-01-09T01:32:55.709Z,99815.28
2023-01-09T01:37:57.785Z,99806.78
2023-01-09T01:43:00.098Z,99797.22
2023-01-09T01:48:15.677Z,99765.41
2023-01-09T01:53:24.230Z,99767.34
2023-01-09T01:58:27.857Z,99770.84
2023-01-09T02:03:30.083Z,99758.22
2023-01-09T02:08:32.542Z,99751.66
2023-01-09T02:13:38.859Z,99755.72
2023-01-09T02:18:54.085Z,99741.47
2023-01-09T02:24:36.727Z,99740.09
2023-01-09T02:30:16.293Z,99734.81
2023-01-09T02:35:48.825Z,99735.66
2023-01-09T02:40:59.021Z,99726.87
2023-01-09T02:46:01.356Z,99726.09
2023-01-09T02:51:13.643Z,99703.34
2023-01-09T02:56:36.723Z,99720.34
2023-01-09T03:01:49.903Z,99715.09
2023-01-09T03:07:08.034Z,99702.44
2023-01-09T03:12:25.247Z,99674.88
2023-01-09T03:17:36.399Z,99687.75
2023-01-09T03:22:40.595Z,99683.91
2023-01-09T03:27:42.660Z,99687.53
2023-01-09T03:32:44.731Z,99674.97
2023-01-09T03:37:46.990Z,99678.75
2023-01-09T03:42:49.168Z,99674.63
2023-01-09T03:47:52.973Z,99676.00
2023-01-09T03:52:55.181Z,99670.44
2023-01-09T03:57:57.335Z,99647.47
2023-01-09T04:02:59.450Z,99645.25
2023-01-09T04:08:02.055Z,99644.44
2023-01-09T04:13:04.121Z,99647.97
2023-01-09T04:18:06.277Z,99661.88
2023-01-09T04:23:08.738Z,99658.34
2023-01-09T04:28:10.856Z,99651.53
2023-01-09T04:33:12.948Z,99665.47
2023-01-09T04:38:15.183Z,99657.50
2023-01-09T04:43:17.423Z,99655.09
2023-01-09T04:48:19.528Z,99654.81
2023-01-09T04:53:21.601Z,99654.59
2023-01-09T04:58:23.684Z,99660.94
2023-01-09T05:03:25.764Z,99662.06
2023-01-09T05:08:27.889Z,99653.03
2023-01-09T05:13:30.419Z,99651.44
2023-01-09T05:18:32.575Z,99653.09
2023-01-09T05:23:34.679Z,99639.41
2023-01-09T05:28:36.843Z,99646.50
2023-01-09T05:33:38.943Z,99644.88
2023-01-09T05:38:41.573Z,99636.91
2023-01-09T05:43:43.703Z,99630.91
2023-01-09T05:48:45.813Z,99633.91
2023-01-09T05:53:48.340Z,99622.13
2023-01-09T05:58:50.587Z,99621.25
2023-01-09T06:03:52.712Z,99632.19
2023-01-09T06:08:54.885Z,99646.50
2023-01-09T06:13:57.096Z,99622.38
2023-01-09T06:18:59.403Z,99637.66
2023-01-09T06:24:01.553Z,99629.19
2023-01-09T06:29:03.800Z,99632.19
2023-01-09T06:34:05.935Z,99651.84
2023-01-09T06:39:08.575Z,99638.41
2023-01-09T06:44:10.756Z,99646.91
2023-01-09T06:49:12.840Z,99667.44
2023-01-09T06:54:14.925Z,99666.41
2023-01-09T06:59:17.053Z,99666.19
2023-01-09T07:04:21.833Z,99667.00
2023-01-09T07:09:24.184Z,99668.13
2023-01-09T07:14:26.336Z,99658.59
2023-01-09T07:19:28.466Z,99648.78
2023-01-09T07:24:30.580Z,99670.69
2023-01-09T07:29:32.698Z,99628.53
2023-01-09T07:34:34.887Z,99653.41
2023-01-09T07:39:36.968Z,99650.09
2023-01-09T07:44:39.035Z,99644.81
2023-01-09T07:49:41.152Z,99619.87
2023-01-09T07:54:43.252Z,99631.69
2023-01-09T07:59:45.381Z,99639.97
2023-01-09T08:04:47.490Z,99627.66
2023-01-09T08:09:49.557Z,99628.50
2023-01-09T08:14:52.030Z,99621.44
2023-01-09T08:19:54.092Z,99625.25
2023-01-09T08:24:56.281Z,99626.34
2023-01-09T08:29:58.534Z,99611.34
2023-01-09T08:35:00.817Z,99616.31
2023-01-09T08:40:03.059Z,99633.91
2023-01-09T08:45:24.118Z,99656.06
2023-01-09T08:50:26.208Z,99630.38
2023-01-09T08:55:28.341Z,99640.47
2023-01-09T09:00:30.545Z,99633.09
2023-01-09T09:05:33.047Z,99639.66
2023-01-09T09:10:36.700Z,99652.22
2023-01-09T09:15:39.131Z,99626.47
2023-01-09T09:20:41.317Z,99609.56
2023-01-09T09:25:43.971Z,99604.94
2023-01-09T09:30:46.075Z,99600.84
2023-01-09T09:35:48.176Z,99600.84
2023-01-09T09:41:43.622Z,99577.34
2023-01-09T09:47:18.460Z,99583.09
2023-01-09T09:52:43.945Z,99576.25
2023-01-09T09:57:47.222Z,99564.75
2023-01-09T10:02:58.388Z,99549.19
2023-01-09T10:08:16.294Z,99566.37
2023-01-09T10:13:45.738Z,99567.94
2023-01-09T10:18:47.979Z,99560.25
2023-01-09T10:24:13.098Z,99562.16
2023-01-09T10:29:49.805Z,99568.72
2023-01-09T10:35:19.643Z,99548.25
2023-01-09T10:40:37.113Z,99549.56
2023-01-09T10:45:54.463Z,99539.47
2023-01-09T10:50:57.414Z,99525.50
2023-01-09T10:56:22.600Z,99523.69
2023-01-09T11:01:28.418Z,99536.78
2023-01-09T11:06:57.160Z,99517.94
2023-01-09T11:11:59.278Z,99517.41
2023-01-09T11:17:04.026Z,99499.66
2023-01-09T11:22:09.407Z,99483.31
2023-01-09T11:27:14.569Z,99472.41
2023-01-09T11:32:24.368Z,99478.97
2023-01-09T11:37:29.688Z,99481.16
2023-01-09T11:42:50.494Z,99464.75
2023-01-09T11:47:52.687Z,99468.81
2023-01-09T11:53:15.087Z,99472.09
2023-01-09T11:58:22.821Z,99465.88
2023-01-09T12:03:40.149Z,99465.06
2023-01-09T12:08:57.258Z,99468.34
2023-01-09T12:13:59.256Z,99409.06
2023-01-09T12:19:11.383Z,99447.34
2023-01-09T12:24:13.436Z,99437.75
2023-01-09T12:29:37.988Z,99419.53
2023-01-09T12:34:49.099Z,99435.03
2023-01-09T12:40:12.705Z,99431.16
2023-01-09T12:45:24.152Z,99431.19
2023-01-09T12:50:26.295Z,99421.25
2023-01-09T12:55:34.367Z,99394.16
2023-01-09T13:00:49.193Z,99386.22
2023-01-09T13:05:53.539Z,99388.72
2023-01-09T13:11:19.578Z,99388.69
2023-01-09T13:16:28.853Z,99398.50
2023-01-09T13:21:31.611Z,99389.78
2023-01-09T13:26:44.190Z,99384.56
2023-01-09T13:32:06.094Z,99389.47
2023-01-09T13:37:22.586Z,99398.50
2023-01-09T13:42:46.050Z,99390.03
2023-01-09T13:48:11.050Z,99403.66
2023-01-09T13:53:19.406Z,99403.16
2023-01-09T13:58:22.827Z,99396.81
2023-01-09T14:03:32.864Z,99397.38
2023-01-09T14:08:35.293Z,99404.44
2023-01-09T14:13:37.364Z,99408.25
2023-01-09T14:18:46.383Z,99417.31
2023-01-09T14:24:07.203Z,99396.00
2023-01-09T14:29:28.539Z,99406.63
2023-01-09T14:34:37.302Z,99404.16
2023-01-09T14:39:43.150Z,99409.28
2023-01-09T14:44:55.436Z,99392.91
2023-01-09T14:50:08.559Z,99400.03
2023-01-09T14:55:35.611Z,99389.97
2023-01-09T15:00:46.137Z,99374.94
2023-01-09T15:05:51.555Z,99395.94
2023-01-09T15:10:56.083Z,99395.44
2023-01-09T15:16:00.145Z,99399.47
2023-01-09T15:21:03.861Z,99377.03
2023-01-09T15:26:25.257Z,99390.19
2023-01-09T15:31:28.646Z,99404.97
2023-01-09T15:36:31.118Z,99397.13
2023-01-09T15:41:51.867Z,99402.03
2023-01-09T15:46:58.820Z,99393.06
2023-01-09T15:52:01.626Z,99406.97
2023-01-09T15:57:25.728Z,99393.59
2023-01-09T16:02:46.499Z,99389.78
2023-01-09T16:07:50.924Z,99384.84
2023-01-09T16:12:54.719Z,99375.53
2023-01-09T16:18:18.159Z,99355.00
2023-01-09T16:23:30.229Z,99360.00
2023-01-09T16:28:32.557Z,99348.28
2023-01-09T16:33:35.388Z,99345.03
2023-01-09T16:38:37.541Z,99360.31
2023-01-09T16:43:39.628Z,99356.75
2023-01-09T16:48:42.285Z,99357.72
2023-01-09T16:53:45.144Z,99342.69
2023-01-09T16:58:47.203Z,99342.44
2023-01-09T17:03:49.927Z,99343.25
2023-01-09T17:08:52.094Z,99340.81
2023-01-09T17:13:54.247Z,99330.69
2023-01-09T17:18:56.504Z,99325.22
2023-01-09T17:24:18.062Z,99324.66
2023-01-09T17:29:20.671Z,99336.69
2023-01-09T17:34:22.811Z,99333.16
2023-01-09T17:39:24.952Z,99339.41
2023-01-09T17:44:27.111Z,99346.19
2023-01-09T17:49:29.750Z,99337.37
2023-01-09T17:54:32.585Z,99337.69
2023-01-09T17:59:35.239Z,99311.91
2023-01-09T18:04:39.199Z,99303.66
2023-01-09T18:09:42.009Z,99291.87
2023-01-09T18:14:44.062Z,99295.41
2023-01-09T18:19:46.555Z,99293.00
2023-01-09T18:24:48.718Z,99298.97
2023-01-09T18:29:51.092Z,99299.50
2023-01-09T18:34:53.197Z,99306.34
2023-01-09T18:39:55.385Z,99293.00
2023-01-09T18:44:57.496Z,99283.09
2023-01-09T18:50:00.076Z,99291.53
2023-01-09T18:55:02.185Z,99280.56
2023-01-09T19:00:05.330Z,99272.09
2023-01-09T19:05:08.930Z,99256.22
2023-01-09T19:10:13.426Z,99236.03
2023-01-09T19:15:18.898Z,99250.81
2023-01-09T19:20:21.029Z,99259.81
2023-01-09T19:25:23.463Z,99258.41
2023-01-09T19:30:26.601Z,99259.50
2023-01-09T19:35:28.914Z,99258.69
2023-01-09T19:40:31.177Z,99260.31
2023-01-09T19:45:33.350Z,99247.53
2023-01-09T19:50:35.471Z,99255.69
2023-01-09T19:55:38.928Z,99250.22
2023-01-09T20:00:41.030Z,99241.47
2023-01-09T20:05:43.132Z,99240.09
2023-01-09T20:10:45.282Z,99238.19
2023-01-09T20:15:47.736Z,99233.81
2023-01-09T20:20:50.408Z,99233.53
2023-01-09T20:25:54.599Z,99225.59
2023-01-09T20:30:56.950Z,99204.38
2023-01-09T20:36:02.864Z,99214.16
2023-01-09T20:41:25.909Z,99213.34
2023-01-09T20:46:30.635Z,99200.25
2023-01-09T20:51:34.728Z,99201.31
2023-01-09T20:56:36.959Z,99203.22
2023-01-09T21:01:40.336Z,99189.06
2023-01-09T21:06:42.785Z,99190.38
2023-01-09T21:11:45.012Z,99189.56
2023-01-09T21:16:54.528Z,99191.69
2023-01-09T21:21:57.355Z,99195.56
2023-01-09T21:26:59.521Z,99194.72
2023-01-09T21:32:01.657Z,99197.75
2023-01-09T21:37:03.932Z,99197.72
2023-01-09T21:42:24.605Z,99195.78
2023-01-09T21:47:26.769Z,99178.87
2023-01-09T21:52:31.966Z,99190.06
2023-01-09T21:57:34.072Z,99195.84
2023-01-09T22:02:36.957Z,99200.19
2023-01-09T22:07:39.141Z,99190.38
2023-01-09T22:13:01.216Z,99199.41
2023-01-09T22:18:03.378Z,99195.06
2023-01-09T22:23:05.673Z,99202.69
2023-01-09T22:28:10.256Z,99166.91
2023-01-09T22:33:12.867Z,99186.81
2023-01-09T22:38:15.015Z,99206.09
2023-01-09T22:43:17.328Z,99185.13
2023-01-09T22:48:19.404Z,99198.72
2023-01-09T22:53:21.486Z,99186.94
2023-01-09T22:58:25.480Z,99196.75
2023-01-09T23:03:28.426Z,99180.66
2023-01-09T23:08:31.285Z,99196.50
2023-01-09T23:13:33.602Z,99191.31
2023-01-09T23:18:35.810Z,99186.44
2023-01-09T23:23:37.928Z,99176.09
2023-01-09T23:28:40.534Z,99185.09
2023-01-09T23:33:42.679Z,99182.56
2023-01-09T23:38:44.866Z,99183.13
2023-01-09T23:43:46.953Z,99169.87
2023-01-09T23:48:49.019Z,99154.84
2023-01-09T23:53:51.080Z,99171.69
2023-01-09T23:58:53.338Z,99154.78
